Latest Weather Observations for Moranbah Airport

IDQ60801

Issued at 4:32 pm EST Saturday 10 December 2016 (issued every 30 minutes, with the page automatically refreshed every 10 minutes)

About weather observations | Map of weather stations | Latest weather observations for QLD | Other Formats
Station Details ID: 034035 Name: MORANBAH AIRPORT Lat: -22.06 Lon: 148.08 Height: 232.2 m
Data from the previous 72 hours. | See also: Recent months at Moranbah Airport
Date/Time
EST
Temp
°C
App
Temp
°C
Dew
Point
°C
Rel
Hum
%
Delta-T
°C
Wind Press
QNH
hPa
Press
MSL
hPa
Rain since
9am
mm
Dir  Spd
km/h
Gust
km/h
Spd
kts
Gust
kts
10/04:30pm 27.0 26.9 21.5 72 3.7 ESE 24 32 13 17 1012.6 1011.0 0.0
10/04:00pm 26.2 26.5 20.8 72 3.6 ESE 20 26 11 14 1012.8 1011.2 0.0
10/03:30pm 26.3 26.8 21.1 73 3.5 E 20 28 11 15 1013.2 1011.6 0.0
10/03:00pm 26.7 26.5 21.2 72 3.7 E 24 30 13 16 1013.4 1011.8 0.0
10/02:30pm 27.3 28.1 20.6 67 4.4 NE 17 24 9 13 1013.9 1012.4 0.0
10/02:00pm 27.5 28.4 20.8 67 4.5 NE 17 24 9 13 1014.4 1012.9 0.0
10/01:30pm 27.2 28.6 20.3 66 4.6 E 13 20 7 11 1014.6 1013.1 0.0
10/01:00pm 27.1 28.7 20.7 68 4.3 ENE 13 17 7 9 1015.1 1013.6 0.0
10/12:30pm 26.8 28.7 20.6 69 4.1 E 11 17 6 9 1015.4 1013.9 0.0
10/12:00pm 26.6 27.0 20.7 70 3.9 ESE 19 24 10 13 1015.6 1014.1 0.0
10/11:30am 26.7 27.0 20.3 68 4.2 E 19 28 10 15 1015.7 1014.2 0.0
10/11:00am 26.3 27.6 21.7 76 3.1 ESE 17 28 9 15 1016.0 1014.5 0.0
10/10:54am 26.2 27.2 21.8 77 3.0 ESE 19 28 10 15 1016.1 1014.6 0.0
10/10:30am 26.0 26.6 21.4 76 3.1 E 20 28 11 15 1015.9 1014.4 0.0
10/10:00am 25.1 26.7 22.2 84 2.0 ESE 17 22 9 12 1015.9 1014.4 0.0
10/09:30am 24.6 26.3 22.3 87 1.6 SE 17 22 9 12 1016.1 1014.6 0.0
10/09:29am 24.8 26.8 22.9 89 1.3 SE 17 22 9 12 1016.1 1014.6 0.0
10/09:00am 23.5 24.9 21.9 91 1.1 SE 17 20 9 11 1015.9 1014.4 54.6
10/08:30am 23.2 25.1 22.0 93 0.8 SE 15 17 8 9 1015.9 1014.4 54.4
10/08:00am 22.7 24.5 21.2 91 1.0 ESE 13 17 7 9 1015.7 1014.2 54.0
10/07:30am 22.5 25.0 21.1 92 0.9 E 9 13 5 7 1015.3 1013.8 54.0
10/07:00am 21.9 23.7 21.1 95 0.5 E 13 17 7 9 1014.8 1013.3 54.0
10/06:30am 21.4 22.7 20.9 97 0.3 E 15 20 8 11 1014.4 1012.9 54.0
10/06:00am 21.3 23.0 21.0 98 0.2 ESE 13 17 7 9 1014.5 1013.0 53.6
10/05:30am 21.3 24.7 21.0 98 0.2 N 4 11 2 6 1014.7 1013.2 52.2
10/05:16am 21.1 24.1 20.8 98 0.2 SW 6 7 3 4 1014.6 1013.1 51.6
10/05:00am 21.1 23.9 20.8 98 0.2 S 7 9 4 5 1014.4 1012.9 51.0
10/04:30am 20.9 23.2 20.6 98 0.2 SE 9 13 5 7 1014.1 1012.6 46.6
10/04:16am 20.8 23.0 20.5 98 0.2 E 9 13 5 7 1014.1 1012.6 41.8
10/04:00am 20.7 21.7 20.2 97 0.3 SSE 15 20 8 11 1013.8 1012.3 39.2
10/03:52am 20.5 21.0 20.0 97 0.3 SSE 17 20 9 11 1013.9 1012.4 36.2
10/03:49am 20.6 20.8 20.1 97 0.3 SSE 19 22 10 12 1013.8 1012.3 34.2
10/03:37am 20.7 19.9 20.0 96 0.5 SE 24 37 13 20 1013.7 1012.2 21.6
10/03:30am 20.8 19.2 20.0 95 0.5 SE 28 37 15 20 1013.7 1012.2 11.0
10/03:28am 21.1 20.0 20.3 95 0.5 SE 26 35 14 19 1013.6 1012.1 8.2
10/03:27am 21.3 20.3 20.5 95 0.5 SE 26 33 14 18 1013.6 1012.1 7.0
10/03:10am 21.6 21.6 20.2 92 0.9 ESE 20 26 11 14 1013.5 1011.9 5.8
10/03:09am 21.8 22.0 20.6 93 0.8 ESE 20 26 11 14 1013.6 1012.1 5.8
10/03:00am 22.2 22.1 20.7 91 1.0 ESE 22 32 12 17 1013.4 1011.8 5.6
10/02:58am 22.4 22.8 20.9 91 1.0 ESE 20 32 11 17 1013.3 1011.7 5.6
10/02:30am 23.0 24.0 21.8 93 0.8 ESE 19 22 10 12 1012.9 1011.3 5.4
10/02:26am 23.1 24.4 21.7 92 0.9 ESE 17 22 9 12 1012.8 1011.2 5.4
10/02:11am 23.4 25.5 22.4 94 0.7 E 15 20 8 11 1012.9 1011.3 5.4
10/02:00am 23.5 25.5 22.3 93 0.8 E 15 19 8 10 1013.0 1011.4 5.2
10/01:30am 23.6 25.5 22.0 91 1.1 SE 15 19 8 10 1013.5 1011.9 5.0
10/01:00am 23.4 25.9 21.8 91 1.1 SE 11 17 6 9 1013.3 1011.7 5.0
10/12:30am 23.4 26.3 21.7 90 1.1 SSW 9 13 5 7 1013.2 1011.6 5.0
10/12:00am 23.5 26.4 21.8 90 1.1 S 9 11 5 6 1013.3 1011.7 4.8
 
Date/Time
EST
Temp
°C
App
Temp
°C
Dew
Point
°C
Rel
Hum
%
Delta-T
°C
Wind Press
QNH
hPa
Press
MSL
hPa
Rain since
9am
mm
Dir  Spd
km/h
Gust
km/h
Spd
kts
Gust
kts
09/11:30pm 23.4 24.7 21.7 90 1.1 E 17 22 9 12 1013.2 1011.6 4.8
09/11:00pm 23.4 24.3 21.5 89 1.3 E 19 22 10 12 1013.9 1012.4 4.8
09/10:30pm 23.3 24.4 21.2 88 1.4 ESE 17 20 9 11 1014.2 1012.7 4.8
09/10:00pm 23.3 23.3 21.0 87 1.5 ESE 22 30 12 16 1014.0 1012.5 4.8
09/09:30pm 23.3 24.8 21.2 88 1.4 E 15 20 8 11 1014.0 1012.5 4.8
09/09:00pm 23.5 25.0 21.2 87 1.5 E 15 20 8 11 1013.8 1012.3 3.8
09/08:30pm 23.9 25.1 21.4 86 1.7 SE 17 22 9 12 1013.7 1012.2 1.2
09/08:18pm 23.9 24.3 20.6 82 2.2 SW 19 28 10 15 1013.2 1011.6 1.0
09/08:03pm 25.2 27.8 20.0 73 3.4 SSW 6 9 3 5 1013.3 1011.7 0.6
09/08:00pm 25.7 28.1 20.0 71 3.7 SW 7 13 4 7 1013.4 1011.8 0.4
09/07:30pm 25.8 24.3 19.4 67 4.2 E 26 37 14 20 1012.1 1010.6 0.0
09/07:00pm 25.7 24.4 19.8 70 3.9 SSE 26 35 14 19 1010.2 1008.7 0.0
09/06:30pm 25.6 23.5 19.7 70 3.8 SSE 30 43 16 23 1010.0 1008.5 0.0
09/06:00pm 25.5 22.7 20.3 73 3.4 S 35 50 19 27 1009.4 1007.8 0.0
09/05:30pm 26.5 24.3 19.6 66 4.5 S 30 52 16 28 1009.2 1007.6 0.0
09/05:11pm 31.0 28.7 15.8 40 9.5 SE 22 61 12 33 1008.9 1007.3 0.0
09/05:00pm 35.4 33.5 15.2 30 12.8 ESE 19 24 10 13 1007.9 1006.3 0.0
09/04:30pm 35.6 34.1 14.3 28 13.3 E 15 22 8 12 1007.3 1005.8 0.0
09/04:00pm 36.5 34.3 14.5 27 13.8 E 19 32 10 17 1007.4 1005.9 0.0
09/03:30pm 37.3 36.5 15.2 27 14.0 SE 13 20 7 11 1007.9 1006.3 0.0
09/03:00pm 36.5 34.5 15.0 27 13.6 ENE 19 28 10 15 1008.3 1006.7 0.0
09/02:30pm 35.3 33.7 14.0 28 13.2 E 15 22 8 12 1008.8 1007.2 0.0
09/02:00pm 36.4 35.6 15.0 28 13.5 NW 13 20 7 11 1009.1 1007.5 0.0
09/01:30pm 37.5 36.6 15.9 28 13.8 NE 15 24 8 13 1009.5 1007.9 0.0
09/01:00pm 35.6 35.1 14.8 28 13.1 N 11 22 6 12 1009.9 1008.4 0.0
09/12:30pm 34.7 34.5 14.6 30 12.5 NNW 9 15 5 8 1010.4 1008.9 0.0
09/12:00pm 33.5 33.6 14.5 31 11.8 NNE 7 13 4 7 1010.9 1009.4 0.0
09/11:30am 33.3 32.6 14.4 32 11.7 N 11 24 6 13 1011.2 1009.7 0.0
09/11:00am 31.7 31.2 14.8 36 10.5 NW 11 20 6 11 1011.7 1010.2 0.0
09/10:30am 31.7 31.3 15.2 36 10.3 N 11 17 6 9 1011.8 1010.3 0.0
09/10:00am 31.0 31.4 15.4 38 9.7 NNE 7 13 4 7 1012.4 1010.8 0.0
09/09:30am 30.3 30.6 17.0 44 8.5 N 11 19 6 10 1012.6 1011.0 0.0
09/09:00am 29.5 29.8 17.0 47 7.9 N 11 19 6 10 1012.8 1011.2 0.0
09/08:30am 28.4 28.6 17.6 52 6.9 N 13 20 7 11 1013.1 1011.5 0.0
09/08:00am 27.2 27.4 17.7 56 6.0 NNW 13 20 7 11 1013.2 1011.6 0.0
09/07:30am 26.5 27.1 17.8 58 5.5 N 11 17 6 9 1013.4 1011.8 0.0
09/07:00am 25.9 26.8 17.5 59 5.3 NW 9 15 5 8 1013.3 1011.7 0.0
09/06:30am 25.9 27.2 17.0 58 5.6 SSE 6 7 3 4 1013.0 1011.4 0.0
09/06:00am 24.6 25.6 16.3 60 5.1 SSE 6 7 3 4 1012.9 1011.3 0.0
09/05:30am 23.4 24.6 16.0 63 4.5 SSW 4 7 2 4 1012.6 1011.0 0.0
09/05:00am 23.6 24.3 16.1 62 4.6 SW 7 9 4 5 1012.1 1010.6 0.0
09/04:30am 23.5 23.1 16.1 63 4.5 WSW 13 19 7 10 1011.9 1010.4 0.0
09/04:00am 23.1 23.2 15.4 62 4.7 SW 9 11 5 6 1011.1 1009.6 0.0
09/03:30am 24.0 23.9 15.0 57 5.4 NNW 9 13 5 7 1010.2 1008.7 0.0
09/03:00am 24.2 23.2 14.6 55 5.8 N 13 19 7 10 1009.8 1008.3 0.0
09/02:30am 23.5 23.5 15.3 60 5.0 NNW 9 13 5 7 1009.9 1008.4 0.0
09/02:00am 22.7 24.6 15.8 65 4.2 CALM 0 0 0 0 1010.1 1008.6 0.0
09/01:30am 22.4 23.5 15.5 65 4.2 ENE 4 7 2 4 1010.2 1008.7 0.0
09/01:00am 23.2 24.9 16.3 65 4.2 E 2 7 1 4 1010.4 1008.9 0.0
09/12:30am 23.1 23.7 15.2 61 4.8 ENE 6 7 3 4 1010.5 1009.0 0.0
09/12:00am 23.9 24.6 15.7 60 5.0 NE 6 9 3 5 1010.9 1009.4 0.0
 
Date/Time
EST
Temp
°C
App
Temp
°C
Dew
Point
°C
Rel
Hum
%
Delta-T
°C
Wind Press
QNH
hPa
Press
MSL
hPa
Rain since
9am
mm
Dir  Spd
km/h
Gust
km/h
Spd
kts
Gust
kts
08/11:30pm 24.8 25.1 16.0 58 5.4 ENE 9 9 5 5 1010.9 1009.4 0.0
08/11:00pm 25.6 26.7 16.5 57 5.7 ENE 6 7 3 4 1011.0 1009.5 0.0
08/10:30pm 26.1 26.5 16.4 55 6.0 ENE 9 11 5 6 1010.9 1009.4 0.0
08/10:00pm 27.1 26.9 16.7 53 6.5 NE 13 19 7 10 1010.6 1009.1 0.0
08/09:30pm 27.6 27.4 16.6 51 6.9 ENE 13 17 7 9 1010.4 1008.9 0.0
08/09:00pm 28.3 27.5 16.2 47 7.6 ENE 15 20 8 11 1010.1 1008.6 0.0
08/08:30pm 29.4 27.7 16.2 44 8.3 ENE 20 28 11 15 1009.8 1008.3 0.0
08/08:00pm 30.5 28.2 15.8 41 9.2 NE 22 33 12 18 1009.3 1007.7 0.0
08/07:30pm 31.6 28.9 14.7 36 10.4 ENE 22 30 12 16 1008.8 1007.2 0.0
08/07:00pm 33.0 29.7 14.1 32 11.7 ENE 24 32 13 17 1008.1 1006.5 0.0
08/06:30pm 34.3 31.8 14.2 29 12.5 ENE 20 28 11 15 1007.8 1006.2 0.0
08/06:00pm 35.3 32.4 12.9 26 13.7 ENE 20 28 11 15 1007.5 1006.0 0.0
08/05:30pm 36.4 33.6 13.2 25 14.3 ENE 20 30 11 16 1007.2 1005.7 0.0
08/05:00pm 36.9 34.8 13.6 24 14.5 ENE 17 26 9 14 1006.8 1005.3 0.0
08/04:30pm 37.8 35.4 13.8 24 15.0 NE 19 24 10 13 1006.8 1005.3 0.0
08/04:00pm 37.9 35.5 13.8 23 15.1 NNE 19 43 10 23 1006.6 1005.1 0.0
08/03:30pm 38.8 36.9 15.2 24 15.0 ENE 19 28 10 15 1006.8 1005.3 0.0
08/03:00pm 37.4 35.9 15.2 26 14.1 NNE 17 28 9 15 1007.2 1005.7 0.0
08/02:30pm 37.0 36.1 14.9 27 14.0 ENE 13 26 7 14 1007.6 1006.1 0.0
08/02:00pm 39.0 39.1 16.6 27 14.6 ENE 11 33 6 18 1008.2 1006.6 0.0
08/01:30pm 36.1 35.3 15.2 28 13.2 ENE 13 24 7 13 1008.8 1007.2 0.0
08/01:00pm 36.2 34.7 15.3 28 13.3 NNE 17 28 9 15 1009.4 1007.8 0.0
08/12:30pm 35.8 34.2 15.0 29 13.1 E 17 28 9 15 1009.8 1008.3 0.0
08/12:00pm 34.7 32.6 14.6 30 12.6 N 19 37 10 20 1010.4 1008.9 0.0
08/11:30am 34.1 33.4 16.5 35 11.3 NNE 15 28 8 15 1010.9 1009.4 0.0
08/11:00am 33.8 32.5 15.7 33 11.4 NE 17 30 9 16 1011.6 1010.1 0.0
08/10:30am 31.8 31.3 16.9 40 9.5 NNE 15 24 8 13 1012.0 1010.5 0.0
08/10:00am 30.7 31.5 17.4 45 8.5 NE 9 24 5 13 1012.4 1010.8 0.0
08/09:30am 30.0 29.9 17.8 48 7.8 ENE 15 24 8 13 1012.8 1011.2 0.0
08/09:00am 28.8 29.4 18.6 54 6.6 ENE 13 20 7 11 1013.2 1011.6 0.0
08/08:30am 28.2 29.2 19.4 59 5.8 NE 13 24 7 13 1013.4 1011.8 0.0
08/08:00am 26.4 28.3 19.8 67 4.3 NE 9 15 5 8 1013.2 1011.6 0.0
08/07:30am 25.2 26.8 20.0 73 3.4 NE 11 15 6 8 1013.2 1011.6 0.0
08/07:00am 24.5 25.7 19.8 75 3.1 NE 13 17 7 9 1013.3 1011.7 0.0
08/06:30am 23.6 24.8 19.9 80 2.4 E 13 15 7 8 1013.2 1011.6 0.0
08/06:00am 21.9 23.3 19.5 86 1.5 ESE 11 15 6 8 1013.0 1011.4 0.0
08/05:30am 21.1 21.6 19.2 89 1.2 SE 15 17 8 9 1012.8 1011.2 0.0
08/05:00am 21.1 21.8 18.9 87 1.4 ESE 13 15 7 8 1012.4 1010.8 0.0
08/04:30am 21.5 21.9 19.1 86 1.5 ESE 15 17 8 9 1012.1 1010.6 0.0
08/04:00am 21.2 21.4 18.6 85 1.6 SE 15 17 8 9 1012.3 1010.7 0.0
08/03:30am 21.3 21.0 18.3 83 1.9 SSE 17 19 9 10 1012.1 1010.6 0.0
08/03:00am 21.7 22.1 18.1 80 2.3 SE 13 15 7 8 1011.6 1010.1 0.0
08/02:30am 21.4 21.6 16.8 75 2.8 SE 11 13 6 7 1011.3 1009.8 0.0
08/02:00am 21.5 22.0 16.5 73 3.1 ESE 9 11 5 6 1011.2 1009.7 0.0
08/01:30am 21.5 21.6 15.6 69 3.6 ESE 9 11 5 6 1011.3 1009.8 0.0
08/01:00am 22.2 22.9 16.0 68 3.8 E 7 9 4 5 1011.3 1009.8 0.0
08/12:30am 24.1 24.7 16.9 64 4.5 N 9 9 5 5 1011.7 1010.2 0.0
08/12:00am 23.8 25.0 16.8 65 4.3 N 6 9 3 5 1012.0 1010.5 0.0
 
Date/Time
EST
Temp
°C
App
Temp
°C
Dew
Point
°C
Rel
Hum
%
Delta-T
°C
Wind Press
QNH
hPa
Press
MSL
hPa
Rain since
9am
mm
Dir  Spd
km/h
Gust
km/h
Spd
kts
Gust
kts
07/11:30pm 24.7 25.5 17.2 63 4.7 ENE 9 11 5 6 1012.4 1010.8 0.0
07/11:00pm 25.5 26.3 17.4 61 5.1 NE 9 11 5 6 1012.7 1011.1 0.0
07/10:30pm 26.3 26.8 17.4 58 5.6 NE 11 15 6 8 1012.9 1011.3 0.0
07/10:00pm 26.7 27.5 17.2 56 6.0 ENE 9 13 5 7 1012.8 1011.2 0.0
07/09:30pm 27.7 28.1 17.3 53 6.6 ENE 11 13 6 7 1012.6 1011.0 0.0
07/09:00pm 28.9 27.7 17.4 49 7.3 ENE 20 32 11 17 1011.8 1010.3 0.0
07/08:30pm 29.8 28.3 17.6 48 7.8 ENE 22 28 12 15 1011.4 1009.9 0.0
07/08:00pm 30.9 29.9 17.6 45 8.6 ENE 19 24 10 13 1011.1 1009.6 0.0
07/07:30pm 32.2 30.9 16.9 40 9.8 ENE 19 24 10 13 1010.8 1009.3 0.0
07/07:00pm 33.7 32.2 15.2 33 11.6 ENE 17 22 9 12 1010.5 1009.0 0.0
07/06:30pm 34.7 32.6 12.4 26 13.5 E 15 19 8 10 1010.2 1008.7 0.0
07/06:00pm 36.1 33.4 11.7 23 14.7 ENE 17 22 9 12 1009.9 1008.4 0.0
07/05:30pm 36.9 33.6 11.0 21 15.5 E 19 26 10 14 1009.6 1008.0 0.0
07/05:00pm 37.1 33.7 11.1 21 15.6 ENE 20 30 11 16 1009.4 1007.8 0.0

Other Formats:

Comma delimited format used in spreadsheet applications
http://www.bom.gov.au/fwo/IDQ60801/IDQ60801.94397.axf

JavaScript Object Notation format (JSON) in row-major order
http://www.bom.gov.au/fwo/IDQ60801/IDQ60801.94397.json